Time;durP1;ratioP1;P1;durP2;ratioP2;P2;SDS_P1;SDS_P2;PMS_P1;PMS_P2;Temp;Humidity;BMP_temperature;BMP_pressure;BME280_temperature;BME280_humidity;BME280_pressure;Samples;Min_cycle;Max_cycle;Signal;HPM_P1;HPM_P2
2023/06/12 00:01:59;;;;;;;6.80;6.13;;;;;;;;;;5032139;28;20377;-73
2023/06/12 00:04:25;;;;;;;8.35;6.80;;;;;;;;;;5032289;28;20486;-73
2023/06/12 00:06:51;;;;;;;9.48;5.50;;;;;;;;;;5032396;28;20033;-73
2023/06/12 00:09:17;;;;;;;6.10;5.43;;;;;;;;;;5032183;28;20030;-73
2023/06/12 00:11:43;;;;;;;6.03;5.43;;;;;;;;;;5032142;28;20025;-73
2023/06/12 00:14:09;;;;;;;7.95;5.45;;;;;;;;;;5032149;28;20457;-73
2023/06/12 00:16:37;;;;;;;6.20;5.30;;;;;;;;;;5032139;28;20024;-73
2023/06/12 00:19:03;;;;;;;7.43;4.95;;;;;;;;;;5032293;28;20032;-73
2023/06/12 00:21:29;;;;;;;5.18;4.68;;;;;;;;;;5032430;28;20029;-73
2023/06/12 00:23:55;;;;;;;7.80;5.35;;;;;;;;;;5032404;28;20032;-74
2023/06/12 00:26:21;;;;;;;6.15;5.20;;;;;;;;;;5032126;28;20026;-74
2023/06/12 00:28:47;;;;;;;7.57;4.95;;;;;;;;;;5032083;28;20051;-74
2023/06/12 00:31:13;;;;;;;7.95;5.50;;;;;;;;;;5031862;28;20038;-73
2023/06/12 00:33:41;;;;;;;8.18;4.63;;;;;;;;;;5031579;28;20049;-73
2023/06/12 00:36:07;;;;;;;10.68;5.78;;;;;;;;;;5031886;28;20468;-73
2023/06/12 00:38:34;;;;;;;5.50;4.95;;;;;;;;;;5031984;28;20113;-73
2023/06/12 00:41:00;;;;;;;7.00;4.82;;;;;;;;;;5032210;28;20037;-74
2023/06/12 00:43:26;;;;;;;5.68;4.70;;;;;;;;;;5031965;28;20036;-74
2023/06/12 00:45:52;;;;;;;5.50;4.45;;;;;;;;;;5032132;28;20096;-74
2023/06/12 00:48:18;;;;;;;7.25;4.82;;;;;;;;;;5031894;28;20137;-73
2023/06/12 00:50:45;;;;;;;5.72;4.82;;;;;;;;;;5031754;28;20040;-74
2023/06/12 00:53:11;;;;;;;8.50;4.57;;;;;;;;;;5031789;28;20026;-73
2023/06/12 00:55:37;;;;;;;8.10;4.85;;;;;;;;;;5031782;28;20022;-74
2023/06/12 00:58:03;;;;;;;7.53;4.90;;;;;;;;;;5032533;28;20457;-73
2023/06/12 01:00:30;;;;;;;8.82;4.82;;;;;;;;;;5035254;28;20037;-74
2023/06/12 01:03:04;;;;;;;8.27;5.03;;;;;;;;;;5035403;28;20096;-74
2023/06/12 01:05:33;;;;;;;6.50;4.30;;;;;;;;;;5035550;28;20029;-74
2023/06/12 01:08:05;;;;;;;6.10;4.55;;;;;;;;;;5035242;28;20022;-74
2023/06/12 01:10:40;;;;;;;6.75;4.25;;;;;;;;;;5035140;28;20032;-74
2023/06/12 01:13:09;;;;;;;6.00;4.63;;;;;;;;;;5050355;28;20029;-74
2023/06/12 01:15:35;;;;;;;5.93;4.70;;;;;;;;;;5035366;28;20040;-73
2023/06/12 01:18:06;;;;;;;8.45;4.78;;;;;;;;;;5034985;28;20022;-74
2023/06/12 01:20:33;;;;;;;8.07;5.05;;;;;;;;;;5035425;28;20104;-74
2023/06/12 01:23:03;;;;;;;6.20;5.22;;;;;;;;;;5034904;28;20072;-74
2023/06/12 01:25:48;;;;;;;8.10;4.75;;;;;;;;;;5034955;28;20029;-74
2023/06/12 01:28:21;;;;;;;10.50;5.40;;;;;;;;;;5050165;28;20065;-74
2023/06/12 01:30:56;;;;;;;5.40;4.80;;;;;;;;;;5035035;28;20030;-73
2023/06/12 01:33:30;;;;;;;5.95;4.57;;;;;;;;;;5033418;28;20099;-73
2023/06/12 01:35:58;;;;;;;5.88;4.78;;;;;;;;;;5034950;28;20021;-73
2023/06/12 01:38:25;;;;;;;5.78;4.20;;;;;;;;;;5034642;28;20515;-74
2023/06/12 01:40:51;;;;;;;7.95;5.13;;;;;;;;;;5034596;28;20029;-74
2023/06/12 01:43:17;;;;;;;6.50;4.57;;;;;;;;;;5034518;28;20120;-74
2023/06/12 01:45:44;;;;;;;8.88;4.95;;;;;;;;;;5034512;28;20033;-74
2023/06/12 01:48:10;;;;;;;7.32;5.10;;;;;;;;;;5034394;28;20104;-74
2023/06/12 01:50:36;;;;;;;5.32;4.60;;;;;;;;;;5034279;28;20116;-74
2023/06/12 01:53:02;;;;;;;7.57;5.30;;;;;;;;;;5034331;28;20629;-74
2023/06/12 01:55:29;;;;;;;5.53;4.45;;;;;;;;;;5034346;28;20026;-74
2023/06/12 01:57:55;;;;;;;5.30;4.68;;;;;;;;;;5034551;28;20024;-74
2023/06/12 02:00:22;;;;;;;7.85;5.25;;;;;;;;;;5034114;28;20022;-73
2023/06/12 02:02:49;;;;;;;7.15;5.07;;;;;;;;;;5033950;28;20064;-74
2023/06/12 02:05:15;;;;;;;6.20;4.32;;;;;;;;;;5034146;28;20013;-74
2023/06/12 02:07:41;;;;;;;7.47;5.07;;;;;;;;;;5034029;28;20606;-74
2023/06/12 02:10:08;;;;;;;6.70;4.82;;;;;;;;;;5033003;28;20041;-74
2023/06/12 02:12:34;;;;;;;9.43;4.80;;;;;;;;;;5034294;28;20029;-73
2023/06/12 02:15:00;;;;;;;6.93;4.60;;;;;;;;;;5033977;28;20096;-74
2023/06/12 02:17:26;;;;;;;4.90;4.32;;;;;;;;;;5034159;28;20029;-74
2023/06/12 02:19:52;;;;;;;6.15;4.80;;;;;;;;;;5034174;28;20429;-74
2023/06/12 02:22:18;;;;;;;7.50;4.93;;;;;;;;;;5033833;28;20025;-74
2023/06/12 02:24:44;;;;;;;6.57;5.20;;;;;;;;;;5033780;28;20066;-74
2023/06/12 02:27:12;;;;;;;7.00;4.40;;;;;;;;;;5033788;28;20021;-74
2023/06/12 02:29:38;;;;;;;6.40;5.15;;;;;;;;;;5033919;28;20044;-74
2023/06/12 02:32:04;;;;;;;5.57;4.63;;;;;;;;;;5033667;28;20488;-74
2023/06/12 02:34:30;;;;;;;7.20;4.45;;;;;;;;;;5032524;28;20092;-73
2023/06/12 02:36:56;;;;;;;6.30;4.70;;;;;;;;;;5033504;28;20119;-74
2023/06/12 02:39:22;;;;;;;10.13;4.32;;;;;;;;;;5033689;28;20026;-73
2023/06/12 02:41:49;;;;;;;7.03;4.10;;;;;;;;;;5033307;28;20030;-74
2023/06/12 02:44:15;;;;;;;4.63;3.78;;;;;;;;;;5033268;28;20021;-74
2023/06/12 02:46:58;;;;;;;5.15;4.07;;;;;;;;;;5033379;28;20025;-74
2023/06/12 02:49:28;;;;;;;6.63;4.18;;;;;;;;;;5033162;28;20131;-74
2023/06/12 02:51:54;;;;;;;;;;;;;;;;;;5033709;28;20033;-74
2023/06/12 02:54:23;;;;;;;6.15;3.88;;;;;;;;;;5033130;28;19905;-73
2023/06/12 02:56:49;;;;;;;7.68;3.75;;;;;;;;;;5033127;28;20385;-74
2023/06/12 02:59:16;;;;;;;7.75;4.10;;;;;;;;;;5033461;28;20021;-74
2023/06/12 03:01:43;;;;;;;6.20;3.80;;;;;;;;;;5033026;28;20061;-74
2023/06/12 03:04:15;;;;;;;4.55;3.88;;;;;;;;;;5033419;28;20443;-74
2023/06/12 03:06:48;;;;;;;5.95;3.80;;;;;;;;;;5033074;28;20435;-74
2023/06/12 03:09:18;;;;;;;7.93;3.70;;;;;;;;;;5032725;28;20057;-74
2023/06/12 03:11:44;;;;;;;7.82;4.10;;;;;;;;;;5032951;28;20029;-73
2023/06/12 03:14:12;;;;;;;6.05;4.25;;;;;;;;;;5032949;28;20021;-74
2023/06/12 03:16:38;;;;;;;7.85;4.03;;;;;;;;;;5033233;28;20022;-73
2023/06/12 03:19:04;;;;;;;7.57;4.47;;;;;;;;;;5032784;28;20033;-73
2023/06/12 03:21:30;;;;;;;4.35;3.60;;;;;;;;;;5032809;28;20037;-73
2023/06/12 03:23:56;;;;;;;5.78;4.32;;;;;;;;;;5032663;28;20452;-73
2023/06/12 03:26:23;;;;;;;5.32;3.90;;;;;;;;;;5033082;28;20075;-75
2023/06/12 03:28:49;;;;;;;7.10;4.20;;;;;;;;;;5032845;28;20030;-74
2023/06/12 03:31:15;;;;;;;5.32;3.90;;;;;;;;;;5032423;28;20099;-73
2023/06/12 03:33:41;;;;;;;5.85;4.03;;;;;;;;;;5032393;28;20049;-73
2023/06/12 03:36:07;;;;;;;5.50;4.03;;;;;;;;;;5032446;28;20021;-73
2023/06/12 03:38:33;;;;;;;6.40;3.83;;;;;;;;;;5032773;28;20130;-73
2023/06/12 03:40:59;;;;;;;5.25;4.60;;;;;;;;;;5032544;28;20479;-74
2023/06/12 03:43:25;;;;;;;8.50;4.65;;;;;;;;;;5032482;28;20029;-74
2023/06/12 03:45:51;;;;;;;5.53;4.15;;;;;;;;;;5032482;28;20087;-74
2023/06/12 03:48:17;;;;;;;6.50;4.80;;;;;;;;;;5021056;28;20488;-74
2023/06/12 03:50:43;;;;;;;5.82;5.20;;;;;;;;;;5012533;28;20034;-74
2023/06/12 03:53:09;;;;;;;6.78;4.13;;;;;;;;;;5012027;28;20022;-74
2023/06/12 03:55:36;;;;;;;5.40;4.00;;;;;;;;;;5012291;28;20109;-74
2023/06/12 03:58:02;;;;;;;7.93;4.28;;;;;;;;;;5012258;28;20105;-74
2023/06/12 04:00:28;;;;;;;6.82;4.20;;;;;;;;;;5011627;28;20030;-74
2023/06/12 04:02:54;;;;;;;7.65;3.85;;;;;;;;;;5012114;28;20101;-73
2023/06/12 04:05:21;;;;;;;5.10;3.53;;;;;;;;;;5012136;28;20026;-74
2023/06/12 04:07:47;;;;;;;6.13;3.90;;;;;;;;;;5012484;28;20199;-74
2023/06/12 04:10:14;;;;;;;7.15;4.05;;;;;;;;;;5012327;28;20504;-74
2023/06/12 04:12:40;;;;;;;9.35;3.97;;;;;;;;;;5012463;28;20109;-74
2023/06/12 04:15:06;;;;;;;5.63;4.00;;;;;;;;;;5012748;28;20106;-74
2023/06/12 04:17:32;;;;;;;7.10;4.00;;;;;;;;;;5012502;28;20128;-73
2023/06/12 04:20:00;;;;;;;4.70;3.60;;;;;;;;;;5012395;28;20541;-74
2023/06/12 04:22:27;;;;;;;7.10;3.70;;;;;;;;;;5012674;28;20108;-74
2023/06/12 04:24:54;;;;;;;5.00;3.88;;;;;;;;;;5012663;28;20029;-74
2023/06/12 04:27:20;;;;;;;7.47;4.15;;;;;;;;;;5011052;28;20037;-74
2023/06/12 04:29:46;;;;;;;5.70;3.67;;;;;;;;;;5012051;28;20038;-74
2023/06/12 04:32:14;;;;;;;6.32;4.30;;;;;;;;;;5012290;28;20038;-73
2023/06/12 04:34:41;;;;;;;5.93;3.88;;;;;;;;;;5014428;28;20401;-74
2023/06/12 04:37:14;;;;;;;8.27;3.67;;;;;;;;;;5016077;28;20029;-74
2023/06/12 04:39:43;;;;;;;9.50;4.03;;;;;;;;;;5016105;28;20018;-74
2023/06/12 04:42:10;;;;;;;4.73;3.77;;;;;;;;;;5018820;28;20033;-74
2023/06/12 04:44:37;;;;;;;7.97;4.07;;;;;;;;;;5035933;28;20251;-74
2023/06/12 04:47:08;;;;;;;6.75;4.30;;;;;;;;;;5035614;28;20029;-74
2023/06/12 04:49:35;;;;;;;6.40;3.88;;;;;;;;;;5034997;28;20401;-74
2023/06/12 04:52:03;;;;;;;5.63;3.78;;;;;;;;;;5015567;28;20469;-74
2023/06/12 04:54:35;;;;;;;5.63;3.70;;;;;;;;;;5016085;28;20021;-74
2023/06/12 04:57:03;;;;;;;7.28;4.45;;;;;;;;;;5016042;28;20026;-75
2023/06/12 04:59:30;;;;;;;4.82;3.72;;;;;;;;;;5015895;28;20382;-75
2023/06/12 05:01:57;;;;;;;11.05;4.22;;;;;;;;;;5015783;28;20022;-75
2023/06/12 05:04:23;;;;;;;6.88;4.35;;;;;;;;;;5015576;28;20516;-75
2023/06/12 05:06:49;;;;;;;5.22;3.95;;;;;;;;;;5015603;28;20022;-75
2023/06/12 05:09:21;;;;;;;6.25;3.85;;;;;;;;;;5016063;28;20172;-75
2023/06/12 05:11:47;;;;;;;4.97;4.00;;;;;;;;;;5016109;28;20074;-75
2023/06/12 05:14:13;;;;;;;5.20;3.65;;;;;;;;;;5035642;28;20064;-74
2023/06/12 05:16:39;;;;;;;7.35;3.92;;;;;;;;;;5035145;28;20034;-75
2023/06/12 05:19:06;;;;;;;4.93;3.88;;;;;;;;;;5035096;28;20510;-75
2023/06/12 05:21:32;;;;;;;5.63;3.88;;;;;;;;;;5021374;28;20483;-75
2023/06/12 05:23:58;;;;;;;9.23;4.43;;;;;;;;;;5015442;28;20026;-75
2023/06/12 05:26:25;;;;;;;5.43;3.95;;;;;;;;;;5017597;28;20490;-75
2023/06/12 05:28:51;;;;;;;5.82;4.13;;;;;;;;;;5018295;28;20053;-75
2023/06/12 05:31:17;;;;;;;6.35;3.80;;;;;;;;;;5035739;28;20072;-75
2023/06/12 05:33:43;;;;;;;5.00;4.15;;;;;;;;;;5034382;28;20061;-75
2023/06/12 05:36:09;;;;;;;6.13;4.07;;;;;;;;;;5034043;28;20143;-75
2023/06/12 05:38:35;;;;;;;6.93;3.90;;;;;;;;;;5033791;28;20029;-75
2023/06/12 05:41:01;;;;;;;6.40;3.83;;;;;;;;;;5033292;28;20032;-75
2023/06/12 05:43:27;;;;;;;5.80;3.60;;;;;;;;;;5033318;28;20112;-75
2023/06/12 05:45:53;;;;;;;5.43;3.65;;;;;;;;;;5033699;28;20030;-75
2023/06/12 05:48:19;;;;;;;5.55;3.70;;;;;;;;;;5033974;28;20026;-75
2023/06/12 05:50:45;;;;;;;8.68;3.70;;;;;;;;;;5033228;28;20033;-75
2023/06/12 05:53:11;;;;;;;6.60;3.70;;;;;;;;;;5034534;28;20079;-75
2023/06/12 05:55:37;;;;;;;5.78;3.25;;;;;;;;;;5034448;28;20026;-75
2023/06/12 05:58:03;;;;;;;5.55;4.35;;;;;;;;;;5034626;28;20026;-75
2023/06/12 06:00:29;;;;;;;8.80;3.95;;;;;;;;;;5034701;28;20025;-75
2023/06/12 06:02:56;;;;;;;6.85;3.70;;;;;;;;;;5034495;28;20472;-75
2023/06/12 06:05:22;;;;;;;5.55;3.72;;;;;;;;;;5035370;28;20032;-75
2023/06/12 06:07:50;;;;;;;4.80;3.63;;;;;;;;;;5037039;28;20037;-75
2023/06/12 06:10:16;;;;;;;5.32;3.40;;;;;;;;;;5034677;28;20064;-75
2023/06/12 06:12:42;;;;;;;6.20;4.10;;;;;;;;;;5038416;28;20018;-75
2023/06/12 06:15:09;;;;;;;4.95;3.60;;;;;;;;;;5039086;28;20564;-75
2023/06/12 06:17:35;;;;;;;6.43;4.05;;;;;;;;;;5036315;28;20039;-75
2023/06/12 06:20:03;;;;;;;4.93;3.90;;;;;;;;;;5033613;28;20116;-75
2023/06/12 06:22:29;;;;;;;4.93;4.07;;;;;;;;;;5037233;28;20026;-75
2023/06/12 06:24:55;;;;;;;12.43;4.15;;;;;;;;;;5033218;28;20026;-75
2023/06/12 06:27:21;;;;;;;9.07;3.85;;;;;;;;;;5033071;28;20067;-75
2023/06/12 06:29:47;;;;;;;6.35;4.28;;;;;;;;;;5032958;28;20443;-75
2023/06/12 06:32:14;;;;;;;6.07;3.78;;;;;;;;;;5033996;28;20105;-75
2023/06/12 06:34:46;;;;;;;5.10;3.58;;;;;;;;;;5032124;28;20111;-75
2023/06/12 06:37:12;;;;;;;6.90;3.38;;;;;;;;;;5032733;28;20029;-75
2023/06/12 06:39:40;;;;;;;7.40;3.85;;;;;;;;;;5032659;28;20026;-75
2023/06/12 06:42:06;;;;;;;10.77;3.88;;;;;;;;;;5032836;28;20473;-75
2023/06/12 06:44:32;;;;;;;5.38;3.97;;;;;;;;;;5032896;28;20022;-76
2023/06/12 06:46:58;;;;;;;5.07;3.83;;;;;;;;;;5032571;28;20049;-76
2023/06/12 06:49:26;;;;;;;4.78;3.85;;;;;;;;;;5032737;28;20061;-76
2023/06/12 06:51:52;;;;;;;5.97;3.75;;;;;;;;;;5032788;28;20078;-76
2023/06/12 06:54:18;;;;;;;5.60;3.95;;;;;;;;;;5032889;28;20104;-76
2023/06/12 06:56:44;;;;;;;4.70;4.07;;;;;;;;;;5033164;28;20487;-75
2023/06/12 06:59:10;;;;;;;5.35;3.97;;;;;;;;;;5032848;28;20640;-76
2023/06/12 07:01:37;;;;;;;6.13;3.90;;;;;;;;;;5032533;28;20025;-74
2023/06/12 07:04:03;;;;;;;4.57;3.95;;;;;;;;;;5032387;28;20027;-74
2023/06/12 07:06:30;;;;;;;6.40;4.20;;;;;;;;;;5032389;28;20503;-74
2023/06/12 07:08:56;;;;;;;5.43;3.90;;;;;;;;;;5032848;28;20402;-74
2023/06/12 07:11:22;;;;;;;4.63;3.97;;;;;;;;;;5032406;28;20108;-74
2023/06/12 07:13:48;;;;;;;6.35;4.47;;;;;;;;;;5032239;28;20338;-74
2023/06/12 07:16:14;;;;;;;5.97;3.60;;;;;;;;;;5032134;28;20056;-74
2023/06/12 07:18:40;;;;;;;4.57;3.90;;;;;;;;;;5032290;28;20029;-74
2023/06/12 07:21:06;;;;;;;6.85;4.32;;;;;;;;;;5032125;28;20508;-73
2023/06/12 07:23:32;;;;;;;5.57;4.40;;;;;;;;;;5032362;28;20029;-73
2023/06/12 07:25:58;;;;;;;6.32;4.18;;;;;;;;;;5016664;28;20022;-73
2023/06/12 07:28:24;;;;;;;5.53;4.18;;;;;;;;;;5027093;28;20026;-74
2023/06/12 07:30:50;;;;;;;5.57;4.70;;;;;;;;;;5023089;28;20044;-73
2023/06/12 07:33:16;;;;;;;6.00;4.72;;;;;;;;;;5021801;28;20408;-73
2023/06/12 07:35:43;;;;;;;4.25;3.92;;;;;;;;;;4739145;28;8046112;-73
2023/06/12 07:38:09;;;;;;;8.82;4.35;;;;;;;;;;5028988;28;20100;-74
2023/06/12 07:40:35;;;;;;;4.75;4.20;;;;;;;;;;5017622;28;20050;-74
2023/06/12 07:43:01;;;;;;;6.43;4.20;;;;;;;;;;5018025;28;20060;-73
2023/06/12 07:45:27;;;;;;;6.68;4.68;;;;;;;;;;5018620;28;20080;-73
2023/06/12 07:47:56;;;;;;;4.90;4.35;;;;;;;;;;5032340;28;20026;-73
2023/06/12 07:50:22;;;;;;;7.03;4.00;;;;;;;;;;5032279;28;20552;-73
2023/06/12 07:52:48;;;;;;;8.40;4.97;;;;;;;;;;5032530;28;20034;-73
2023/06/12 07:55:14;;;;;;;7.22;4.50;;;;;;;;;;5031931;28;20080;-73
2023/06/12 07:57:41;;;;;;;6.30;4.53;;;;;;;;;;5027034;28;20057;-73
2023/06/12 08:00:07;;;;;;;6.22;4.70;;;;;;;;;;5032188;28;20029;-73
2023/06/12 08:02:34;;;;;;;6.57;4.20;;;;;;;;;;5031928;28;20053;-73
2023/06/12 08:05:00;;;;;;;4.70;3.97;;;;;;;;;;5032258;28;20381;-73
2023/06/12 08:07:27;;;;;;;5.63;4.25;;;;;;;;;;5032245;28;20033;-73
2023/06/12 08:09:53;;;;;;;5.25;4.32;;;;;;;;;;5036074;28;20013;-73
2023/06/12 08:12:20;;;;;;;6.38;4.28;;;;;;;;;;5036224;28;20086;-73
2023/06/12 08:14:51;;;;;;;5.88;4.30;;;;;;;;;;5036346;28;20029;-73
2023/06/12 08:17:17;;;;;;;5.40;4.72;;;;;;;;;;5036229;28;20010;-73
2023/06/12 08:19:43;;;;;;;7.75;4.45;;;;;;;;;;5035764;28;20087;-73
2023/06/12 08:22:09;;;;;;;5.72;4.32;;;;;;;;;;5035647;28;20034;-73
2023/06/12 08:24:36;;;;;;;5.35;4.50;;;;;;;;;;5033499;28;20029;-73
2023/06/12 08:27:02;;;;;;;6.80;4.32;;;;;;;;;;5034860;28;20022;-73
2023/06/12 08:29:29;;;;;;;6.65;4.60;;;;;;;;;;5035086;28;20033;-73
2023/06/12 08:31:55;;;;;;;7.60;5.00;;;;;;;;;;5034063;28;20088;-73
2023/06/12 08:34:24;;;;;;;6.57;4.40;;;;;;;;;;5034270;28;20045;-73
2023/06/12 08:36:50;;;;;;;;;;;;;;;;;;5032771;28;20036;-75
2023/06/12 08:39:17;;;;;;;8.18;3.95;;;;;;;;;;5018705;28;19905;-74
2023/06/12 08:41:53;;;;;;;5.25;4.30;;;;;;;;;;5032095;28;20029;-74
2023/06/12 08:44:21;;;;;;;5.07;4.00;;;;;;;;;;5018935;28;20025;-75
2023/06/12 08:46:48;;;;;;;4.18;3.70;;;;;;;;;;5034981;28;20030;-75
2023/06/12 08:49:15;;;;;;;4.40;3.88;;;;;;;;;;5033294;28;20240;-73
2023/06/12 08:51:42;;;;;;;5.78;3.90;;;;;;;;;;5034178;28;20040;-73
2023/06/12 08:54:08;;;;;;;5.50;3.75;;;;;;;;;;5034171;28;20033;-73
2023/06/12 08:56:36;;;;;;;3.92;3.17;;;;;;;;;;5034091;28;20025;-74
2023/06/12 08:59:03;;;;;;;4.07;3.78;;;;;;;;;;5033758;28;20017;-73
2023/06/12 09:01:30;;;;;;;3.65;3.22;;;;;;;;;;5034061;28;20017;-73
2023/06/12 09:04:00;;;;;;;3.65;3.35;;;;;;;;;;5033786;28;20038;-73
2023/06/12 09:06:26;;;;;;;4.00;3.60;;;;;;;;;;5033915;28;20022;-74
2023/06/12 09:08:52;;;;;;;8.32;3.70;;;;;;;;;;5031152;28;20037;-74
2023/06/12 09:11:18;;;;;;;5.88;3.50;;;;;;;;;;5035316;28;20056;-74
2023/06/12 09:13:44;;;;;;;7.03;3.90;;;;;;;;;;5033666;28;20056;-73
2023/06/12 09:16:12;;;;;;;4.47;4.07;;;;;;;;;;5032881;28;20083;-74
2023/06/12 09:18:48;;;;;;;4.25;3.85;;;;;;;;;;5033160;28;20056;-73
2023/06/12 09:21:14;;;;;;;5.15;3.60;;;;;;;;;;5034052;28;20436;-74
2023/06/12 09:23:43;;;;;;;5.72;3.60;;;;;;;;;;5033972;28;20507;-74
2023/06/12 09:26:15;;;;;;;4.90;3.88;;;;;;;;;;5033415;28;20518;-74
2023/06/12 09:28:44;;;;;;;5.13;3.95;;;;;;;;;;5032326;28;20415;-74
2023/06/12 09:31:10;;;;;;;4.13;3.40;;;;;;;;;;5033241;28;20104;-73
2023/06/12 09:33:39;;;;;;;7.07;3.92;;;;;;;;;;5030251;28;20100;-73
2023/06/12 09:36:07;;;;;;;5.75;3.70;;;;;;;;;;5020455;28;20037;-73
2023/06/12 09:38:34;;;;;;;4.22;3.60;;;;;;;;;;5029587;28;20562;-73
2023/06/12 09:41:01;;;;;;;6.10;3.65;;;;;;;;;;5033040;28;20064;-74
2023/06/12 09:43:27;;;;;;;4.78;3.50;;;;;;;;;;5033488;28;20086;-73
2023/06/12 09:45:53;;;;;;;7.07;3.80;;;;;;;;;;5034060;28;20026;-73
2023/06/12 09:48:19;;;;;;;4.15;3.28;;;;;;;;;;5034329;28;20076;-73
2023/06/12 09:50:46;;;;;;;5.00;3.67;;;;;;;;;;5034356;28;20047;-74
2023/06/12 09:53:16;;;;;;;5.47;3.92;;;;;;;;;;5034282;28;20029;-74
2023/06/12 09:55:44;;;;;;;3.97;3.60;;;;;;;;;;5034570;28;20033;-74
2023/06/12 09:58:10;;;;;;;5.45;3.60;;;;;;;;;;5034554;28;20376;-73
2023/06/12 10:00:36;;;;;;;4.22;3.40;;;;;;;;;;5034264;28;20079;-74
2023/06/12 10:03:05;;;;;;;4.68;3.20;;;;;;;;;;5034022;28;20067;-73
2023/06/12 10:05:37;;;;;;;5.57;3.38;;;;;;;;;;5023947;28;20543;-73
2023/06/12 10:08:06;;;;;;;4.10;3.50;;;;;;;;;;5033453;28;20083;-73
2023/06/12 10:10:34;;;;;;;6.40;4.15;;;;;;;;;;5026727;28;20018;-74
2023/06/12 10:13:01;;;;;;;5.82;3.70;;;;;;;;;;5019605;28;20588;-74
2023/06/12 10:15:28;;;;;;;5.57;3.40;;;;;;;;;;5019559;28;20033;-73
2023/06/12 10:17:54;;;;;;;7.15;4.07;;;;;;;;;;5014579;28;20022;-73
2023/06/12 10:20:21;;;;;;;5.97;4.22;;;;;;;;;;5014063;28;20037;-74
2023/06/12 10:22:47;;;;;;;4.10;3.75;;;;;;;;;;5014090;28;20026;-73
2023/06/12 10:25:14;;;;;;;5.10;3.70;;;;;;;;;;5014022;28;20463;-74
2023/06/12 10:27:41;;;;;;;5.82;3.92;;;;;;;;;;5013924;28;20022;-73
2023/06/12 10:30:12;;;;;;;5.07;3.67;;;;;;;;;;5019857;28;20156;-73
2023/06/12 10:32:38;;;;;;;9.60;3.88;;;;;;;;;;5032824;28;20030;-73
2023/06/12 10:35:04;;;;;;;4.10;3.40;;;;;;;;;;5032852;28;20045;-73
2023/06/12 10:37:30;;;;;;;5.07;3.70;;;;;;;;;;5024671;28;20018;-73
2023/06/12 10:40:10;;;;;;;5.32;3.80;;;;;;;;;;5026843;28;20091;-73
2023/06/12 10:42:35;;;;;;;;;;;;;;;;;;5033263;28;20025;-73
2023/06/12 10:45:01;;;;;;;4.57;3.63;;;;;;;;;;5030221;28;20011;-73
2023/06/12 10:47:29;;;;;;;5.97;3.90;;;;;;;;;;5026712;28;20029;-74
2023/06/12 10:50:02;;;;;;;6.38;3.60;;;;;;;;;;5023950;28;20026;-73
2023/06/12 10:52:28;;;;;;;5.55;3.65;;;;;;;;;;5013035;28;20034;-74
2023/06/12 10:55:13;;;;;;;3.97;3.45;;;;;;;;;;5018827;28;20029;-74
2023/06/12 10:57:39;;;;;;;6.93;3.80;;;;;;;;;;5033043;28;20392;-73
2023/06/12 11:00:06;;;;;;;3.72;3.17;;;;;;;;;;5033120;28;20068;-73
2023/06/12 11:02:32;;;;;;;5.63;3.65;;;;;;;;;;5032543;28;20441;-74
2023/06/12 11:05:03;;;;;;;4.53;3.58;;;;;;;;;;5032912;28;20076;-73
2023/06/12 11:07:31;;;;;;;5.40;3.78;;;;;;;;;;5032817;28;20087;-73
2023/06/12 11:09:57;;;;;;;5.45;3.30;;;;;;;;;;5033024;28;20029;-73
2023/06/12 11:12:23;;;;;;;7.20;3.75;;;;;;;;;;5032683;28;20021;-72
2023/06/12 11:14:49;;;;;;;5.40;3.42;;;;;;;;;;5031981;28;20025;-74
2023/06/12 11:17:16;;;;;;;5.50;3.53;;;;;;;;;;5032400;28;20407;-73
2023/06/12 11:19:42;;;;;;;3.80;3.50;;;;;;;;;;5032880;28;20024;-73
2023/06/12 11:22:08;;;;;;;4.35;3.92;;;;;;;;;;5032922;28;20017;-74
2023/06/12 11:24:34;;;;;;;6.57;3.50;;;;;;;;;;5032908;28;20037;-74
2023/06/12 11:27:00;;;;;;;4.10;3.45;;;;;;;;;;5032705;28;20056;-74
2023/06/12 11:29:29;;;;;;;4.53;3.33;;;;;;;;;;5033124;28;20025;-73
2023/06/12 11:32:02;;;;;;;4.88;3.97;;;;;;;;;;5032522;28;20041;-73
2023/06/12 11:34:35;;;;;;;5.10;3.67;;;;;;;;;;5030025;28;20049;-73
2023/06/12 11:37:30;;;;;;;4.07;3.65;;;;;;;;;;5030968;28;20087;-73
2023/06/12 11:40:09;;;;;;;10.05;3.80;;;;;;;;;;5001628;28;20050;-73
2023/06/12 11:42:42;;;;;;;3.60;3.30;;;;;;;;;;5016263;28;20033;-73
2023/06/12 11:45:09;;;;;;;4.43;4.03;;;;;;;;;;5027017;28;20555;-73
2023/06/12 11:47:37;;;;;;;4.30;3.72;;;;;;;;;;5031595;28;20027;-73
2023/06/12 11:50:04;;;;;;;3.30;3.00;;;;;;;;;;5026828;28;20430;-73
2023/06/12 11:52:30;;;;;;;3.65;3.30;;;;;;;;;;5017292;28;20384;-73
2023/06/12 11:55:00;;;;;;;3.90;3.60;;;;;;;;;;5032228;28;20029;-73
2023/06/12 11:57:27;;;;;;;4.07;3.55;;;;;;;;;;5031658;28;20013;-73
2023/06/12 11:59:56;;;;;;;4.20;3.40;;;;;;;;;;5012622;28;20037;-73
2023/06/12 12:02:26;;;;;;;6.95;3.67;;;;;;;;;;5011508;28;20108;-73
2023/06/12 12:04:53;;;;;;;3.90;3.35;;;;;;;;;;5011535;28;20030;-74
2023/06/12 12:07:20;;;;;;;5.55;4.03;;;;;;;;;;5016018;28;20057;-73
2023/06/12 12:09:46;;;;;;;4.78;3.22;;;;;;;;;;5030673;28;20468;-73
2023/06/12 12:12:15;;;;;;;4.82;3.28;;;;;;;;;;5029571;28;20120;-73
2023/06/12 12:14:48;;;;;;;4.90;3.30;;;;;;;;;;5031077;28;20476;-73
2023/06/12 12:17:16;;;;;;;4.32;3.60;;;;;;;;;;5031031;28;20109;-73
2023/06/12 12:19:42;;;;;;;4.07;3.40;;;;;;;;;;5031047;28;20030;-73
2023/06/12 12:22:10;;;;;;;6.13;3.10;;;;;;;;;;5030948;28;20036;-74
2023/06/12 12:24:36;;;;;;;3.45;3.15;;;;;;;;;;5031088;28;20049;-74
2023/06/12 12:27:03;;;;;;;3.60;3.20;;;;;;;;;;5030734;28;20500;-74
2023/06/12 12:29:32;;;;;;;4.50;2.90;;;;;;;;;;5030749;28;20048;-74
2023/06/12 12:31:58;;;;;;;6.00;3.30;;;;;;;;;;5030626;28;20121;-74
2023/06/12 12:34:26;;;;;;;3.28;2.97;;;;;;;;;;5030265;28;20132;-75
2023/06/12 12:36:55;;;;;;;3.47;3.17;;;;;;;;;;5030950;28;20026;-75
2023/06/12 12:39:21;;;;;;;3.90;3.45;;;;;;;;;;5031143;28;20028;-75
2023/06/12 12:41:47;;;;;;;3.53;3.22;;;;;;;;;;5030889;28;20520;-75
2023/06/12 12:44:13;;;;;;;3.95;3.00;;;;;;;;;;5030902;28;20052;-75
2023/06/12 12:46:40;;;;;;;3.47;3.10;;;;;;;;;;5030780;28;20417;-75
2023/06/12 12:49:06;;;;;;;4.55;3.08;;;;;;;;;;5029317;28;20041;-75
2023/06/12 12:51:32;;;;;;;4.25;3.40;;;;;;;;;;5030807;28;20037;-76
2023/06/12 12:53:58;;;;;;;5.15;3.50;;;;;;;;;;5032631;28;20151;-75
2023/06/12 12:56:24;;;;;;;4.57;3.30;;;;;;;;;;5035318;28;20112;-73
2023/06/12 12:58:50;;;;;;;4.57;3.53;;;;;;;;;;5032594;28;20028;-73
2023/06/12 13:01:16;;;;;;;3.60;3.15;;;;;;;;;;5021942;28;20037;-74
2023/06/12 13:03:42;;;;;;;3.95;3.08;;;;;;;;;;5035001;28;20026;-74
2023/06/12 13:06:11;;;;;;;5.43;3.25;;;;;;;;;;5033862;28;20108;-74
2023/06/12 13:08:37;;;;;;;3.63;3.33;;;;;;;;;;5035579;28;20064;-74
2023/06/12 13:11:03;;;;;;;4.35;3.42;;;;;;;;;;5034784;28;20803;-74
2023/06/12 13:13:29;;;;;;;3.95;3.53;;;;;;;;;;5034919;28;20022;-75
2023/06/12 13:15:55;;;;;;;4.97;3.50;;;;;;;;;;5034968;28;20071;-74
2023/06/12 13:18:21;;;;;;;6.28;3.65;;;;;;;;;;5035112;28;20021;-75
2023/06/12 13:20:47;;;;;;;4.03;3.63;;;;;;;;;;5034974;28;20602;-74
2023/06/12 13:23:14;;;;;;;5.65;3.78;;;;;;;;;;5034907;28;20030;-74
2023/06/12 13:25:40;;;;;;;5.43;4.18;;;;;;;;;;5035112;28;20353;-75
2023/06/12 13:28:06;;;;;;;4.53;3.78;;;;;;;;;;5035178;28;20033;-75
2023/06/12 13:30:32;;;;;;;5.63;4.10;;;;;;;;;;5026328;28;20077;-74
2023/06/12 13:32:58;;;;;;;5.22;3.72;;;;;;;;;;5026736;28;20061;-75
2023/06/12 13:35:25;;;;;;;5.57;4.53;;;;;;;;;;5033869;28;20480;-74
2023/06/12 13:37:51;;;;;;;4.25;3.60;;;;;;;;;;5035157;28;20695;-75
2023/06/12 13:40:17;;;;;;;4.57;4.18;;;;;;;;;;5033368;28;20101;-75
2023/06/12 13:42:44;;;;;;;4.78;3.95;;;;;;;;;;5015335;28;20097;-75
2023/06/12 13:45:11;;;;;;;9.73;5.25;;;;;;;;;;5032884;28;20045;-75
2023/06/12 13:47:37;;;;;;;7.90;5.65;;;;;;;;;;5028256;28;20504;-75
2023/06/12 13:50:07;;;;;;;8.45;4.88;;;;;;;;;;5034399;28;20048;-74
2023/06/12 13:52:33;;;;;;;9.25;5.70;;;;;;;;;;5034242;28;20014;-74
2023/06/12 13:54:59;;;;;;;9.45;5.90;;;;;;;;;;5032985;28;20456;-74
2023/06/12 13:57:25;;;;;;;9.15;5.72;;;;;;;;;;5034213;28;20029;-73
2023/06/12 13:59:51;;;;;;;9.20;6.15;;;;;;;;;;5034319;28;20030;-74
2023/06/12 14:02:17;;;;;;;10.32;5.68;;;;;;;;;;5034173;28;20384;-74
2023/06/12 14:04:43;;;;;;;11.45;6.57;;;;;;;;;;5033953;28;20076;-75
2023/06/12 14:07:09;;;;;;;7.43;5.43;;;;;;;;;;5032976;28;20036;-75
2023/06/12 14:09:35;;;;;;;10.23;6.43;;;;;;;;;;5034090;28;20462;-75
2023/06/12 14:12:01;;;;;;;10.98;5.90;;;;;;;;;;5033605;28;20029;-75
2023/06/12 14:14:27;;;;;;;10.80;6.55;;;;;;;;;;5033912;28;20095;-75
2023/06/12 14:16:54;;;;;;;9.00;6.35;;;;;;;;;;5033398;28;20025;-75
2023/06/12 14:19:20;;;;;;;11.27;7.10;;;;;;;;;;5034140;28;20484;-75
2023/06/12 14:21:46;;;;;;;9.23;6.72;;;;;;;;;;5033710;28;20516;-75
2023/06/12 14:24:12;;;;;;;9.63;7.13;;;;;;;;;;5033764;28;20026;-75
2023/06/12 14:26:38;;;;;;;10.40;7.78;;;;;;;;;;5033749;28;20056;-75
2023/06/12 14:29:04;;;;;;;13.73;7.35;;;;;;;;;;5033681;28;20468;-75
2023/06/12 14:31:29;;;;;;;9.13;6.65;;;;;;;;;;5033590;28;20096;-74
2023/06/12 14:33:55;;;;;;;10.75;7.07;;;;;;;;;;5032709;28;20436;-75
2023/06/12 14:36:21;;;;;;;9.23;7.35;;;;;;;;;;5033510;28;20033;-74
2023/06/12 14:38:47;;;;;;;8.35;6.82;;;;;;;;;;5032774;28;20029;-74
2023/06/12 14:41:14;;;;;;;8.35;7.28;;;;;;;;;;5024973;28;20037;-74
2023/06/12 14:43:40;;;;;;;8.82;7.07;;;;;;;;;;5033215;28;20025;-74